createdAt,value
2018-08-20T00:00:48.043Z,13.43
2018-08-20T00:03:16.906Z,11.60
2018-08-20T00:05:50.099Z,11.37
2018-08-20T00:08:18.641Z,10.80
2018-08-20T00:10:46.724Z,10.47
2018-08-20T00:13:15.156Z,10.47
2018-08-20T00:15:43.705Z,10.80
2018-08-20T00:18:14.669Z,9.60
2018-08-20T00:20:43.508Z,9.80
2018-08-20T00:23:11.953Z,9.60
2018-08-20T00:25:40.401Z,9.33
2018-08-20T00:28:09.249Z,9.50
2018-08-20T00:30:37.693Z,9.47
2018-08-20T00:33:05.778Z,9.00
2018-08-20T00:35:33.939Z,8.77
2018-08-20T00:38:02.761Z,9.13
2018-08-20T00:40:31.261Z,8.60
2018-08-20T00:42:59.770Z,7.43
2018-08-20T00:45:28.179Z,8.20
2018-08-20T00:47:56.996Z,8.57
2018-08-20T00:50:25.514Z,8.13
2018-08-20T00:52:54.300Z,8.43
2018-08-20T00:55:23.098Z,9.00
2018-08-20T00:57:51.820Z,8.10
2018-08-20T01:00:19.890Z,7.57
2018-08-20T01:02:48.781Z,9.20
2018-08-20T01:05:16.865Z,7.93
2018-08-20T01:07:45.411Z,8.57
2018-08-20T01:10:13.882Z,9.13
2018-08-20T01:12:42.367Z,8.17
2018-08-20T01:15:10.818Z,8.20
2018-08-20T01:17:39.267Z,8.87
2018-08-20T01:20:07.807Z,8.77
2018-08-20T01:22:36.032Z,8.97
2018-08-20T01:25:04.273Z,8.47
2018-08-20T01:27:32.715Z,8.30
2018-08-20T01:30:00.780Z,8.93
2018-08-20T01:32:28.955Z,10.13
2018-08-20T01:35:13.364Z,9.10
2018-08-20T01:37:41.773Z,8.70
2018-08-20T01:40:10.243Z,9.17
2018-08-20T01:42:38.977Z,8.53
2018-08-20T01:45:07.030Z,8.73
2018-08-20T01:47:35.846Z,8.43
2018-08-20T01:50:04.606Z,8.73
2018-08-20T01:52:33.001Z,9.53
2018-08-20T01:55:01.467Z,8.67
2018-08-20T01:57:30.319Z,9.00
2018-08-20T01:59:59.103Z,8.30
2018-08-20T02:02:27.280Z,8.43
2018-08-20T02:04:55.486Z,8.30
2018-08-20T02:07:23.601Z,7.90
2018-08-20T02:09:51.907Z,8.57
2018-08-20T02:12:20.408Z,8.80
2018-08-20T02:14:48.897Z,8.03
2018-08-20T02:17:16.934Z,8.87
2018-08-20T02:19:45.483Z,8.20
2018-08-20T02:22:14.353Z,8.07
2018-08-20T02:24:43.196Z,7.90
2018-08-20T02:27:11.679Z,8.20
2018-08-20T02:29:39.909Z,8.93
2018-08-20T02:32:08.475Z,9.10
2018-08-20T02:34:37.218Z,7.93
2018-08-20T02:37:05.556Z,9.60
2018-08-20T02:39:34.270Z,9.57
2018-08-20T02:42:02.772Z,8.90
2018-08-20T02:44:31.292Z,9.00
2018-08-20T02:46:59.371Z,10.00
2018-08-20T02:49:27.853Z,9.73
2018-08-20T02:51:55.941Z,9.80
2018-08-20T02:54:24.057Z,9.20
2018-08-20T02:56:52.925Z,8.67
2018-08-20T02:59:21.071Z,9.03
2018-08-20T03:01:49.835Z,9.60
2018-08-20T03:04:18.618Z,8.90
2018-08-20T03:06:47.336Z,9.43
2018-08-20T03:09:16.561Z,10.60
2018-08-20T03:11:44.746Z,10.03
2018-08-20T03:14:13.623Z,10.07
2018-08-20T03:16:42.379Z,9.90
2018-08-20T03:19:11.234Z,11.10
2018-08-20T03:21:39.451Z,10.50
2018-08-20T03:24:07.543Z,10.03
2018-08-20T03:26:36.480Z,10.50
2018-08-20T03:29:04.984Z,10.07
2018-08-20T03:31:33.439Z,10.47
2018-08-20T03:34:01.974Z,11.00
2018-08-20T03:36:30.208Z,10.07
2018-08-20T03:38:58.657Z,9.97
2018-08-20T03:41:27.175Z,11.00
2018-08-20T03:43:55.914Z,10.20
2018-08-20T03:46:24.352Z,10.87
2018-08-20T03:48:52.523Z,11.10
2018-08-20T03:51:20.664Z,10.40
2018-08-20T03:53:49.054Z,10.33
2018-08-20T03:56:17.862Z,10.77
2018-08-20T03:58:46.091Z,10.23
2018-08-20T04:01:14.907Z,11.40
2018-08-20T04:03:43.730Z,10.83
2018-08-20T04:06:12.244Z,12.10
2018-08-20T04:08:41.021Z,11.33
2018-08-20T04:11:09.542Z,11.20
2018-08-20T04:13:37.950Z,11.00
2018-08-20T04:16:06.390Z,10.63
2018-08-20T04:18:35.226Z,11.23
2018-08-20T04:21:03.334Z,14.10
2018-08-20T04:23:32.116Z,10.93
2018-08-20T04:26:00.583Z,10.17
2018-08-20T04:28:29.041Z,11.40
2018-08-20T04:30:57.450Z,10.73
2018-08-20T04:33:27.459Z,11.70
2018-08-20T04:35:55.914Z,12.23
2018-08-20T04:38:24.702Z,10.20
2018-08-20T04:40:53.133Z,10.50
2018-08-20T04:43:21.925Z,11.30
2018-08-20T04:45:50.751Z,11.17
2018-08-20T04:48:19.494Z,12.53
2018-08-20T04:50:47.987Z,11.60
2018-08-20T04:53:16.966Z,11.70
2018-08-20T04:55:45.812Z,11.80
2018-08-20T04:58:14.601Z,11.10
2018-08-20T05:00:43.341Z,10.87
2018-08-20T05:03:16.049Z,11.23
2018-08-20T05:05:44.266Z,11.33
2018-08-20T05:08:12.702Z,11.53
2018-08-20T05:10:41.535Z,11.93
2018-08-20T05:13:10.447Z,10.97
2018-08-20T05:15:39.257Z,11.00
2018-08-20T05:18:07.401Z,11.97
2018-08-20T05:20:36.214Z,12.10
2018-08-20T05:23:05.637Z,12.00
2018-08-20T05:25:34.418Z,11.10
2018-08-20T05:28:03.279Z,11.13
2018-08-20T05:30:31.384Z,11.50
2018-08-20T05:33:00.182Z,11.47
2018-08-20T05:35:28.989Z,10.80
2018-08-20T05:37:57.528Z,10.73
2018-08-20T05:40:25.966Z,12.17
2018-08-20T05:42:54.175Z,11.63
2018-08-20T05:45:22.367Z,11.07
2018-08-20T05:47:50.708Z,10.80
2018-08-20T05:50:18.780Z,10.87
2018-08-20T05:52:47.308Z,11.60
2018-08-20T05:55:15.426Z,11.60
2018-08-20T05:57:44.172Z,11.93
2018-08-20T06:00:15.185Z,12.23
2018-08-20T06:02:43.937Z,12.00
2018-08-20T06:05:12.097Z,12.63
2018-08-20T06:07:40.862Z,13.37
2018-08-20T06:10:09.893Z,12.67
2018-08-20T06:12:38.160Z,14.03
2018-08-20T06:15:09.686Z,13.07
2018-08-20T06:17:38.583Z,14.20
2018-08-20T06:20:12.080Z,12.40
2018-08-20T06:22:40.224Z,12.47
2018-08-20T06:25:09.817Z,13.50
2018-08-20T06:27:38.209Z,13.30
2018-08-20T06:30:07.393Z,13.20
2018-08-20T06:32:36.069Z,13.80
2018-08-20T06:35:05.080Z,12.70
2018-08-20T06:37:33.969Z,12.47
2018-08-20T06:40:02.472Z,13.30
2018-08-20T06:42:30.966Z,11.43
2018-08-20T06:44:59.747Z,12.13
2018-08-20T06:47:27.903Z,12.20
2018-08-20T06:49:56.285Z,11.20
2018-08-20T06:52:25.138Z,10.83
2018-08-20T06:54:54.001Z,11.00
2018-08-20T06:57:22.474Z,10.57
2018-08-20T06:59:50.958Z,11.57
2018-08-20T07:02:19.196Z,11.20
2018-08-20T07:04:48.120Z,11.20
2018-08-20T07:07:16.248Z,11.50
2018-08-20T07:09:45.022Z,11.40
2018-08-20T07:12:13.452Z,11.10
2018-08-20T07:14:41.596Z,10.80
2018-08-20T07:17:10.032Z,10.70
2018-08-20T07:19:38.550Z,9.63
2018-08-20T07:22:06.993Z,9.33
2018-08-20T07:24:35.945Z,10.10
2018-08-20T07:27:04.398Z,10.57
2018-08-20T07:29:38.606Z,9.93
2018-08-20T07:32:09.103Z,9.83
2018-08-20T07:34:39.519Z,10.53
2018-08-20T07:37:08.603Z,10.17
2018-08-20T07:39:37.073Z,9.83
2018-08-20T07:42:05.565Z,8.30
2018-08-20T07:44:34.297Z,10.40
2018-08-20T07:47:02.789Z,8.17
2018-08-20T07:49:30.906Z,9.37
2018-08-20T07:51:59.019Z,10.43
2018-08-20T07:54:27.529Z,8.97
2018-08-20T07:56:55.867Z,8.20
2018-08-20T07:59:24.067Z,8.80
2018-08-20T08:01:52.222Z,8.33
2018-08-20T08:04:21.028Z,8.53
2018-08-20T08:06:49.154Z,9.73
2018-08-20T08:09:17.270Z,8.40
2018-08-20T08:11:45.451Z,9.07
2018-08-20T08:14:13.979Z,9.27
2018-08-20T08:16:42.577Z,9.57
2018-08-20T08:19:10.654Z,9.17
2018-08-20T08:21:38.772Z,10.37
2018-08-20T08:24:07.281Z,8.90
2018-08-20T08:26:36.131Z,9.37
2018-08-20T08:29:04.740Z,9.77
2018-08-20T08:31:33.529Z,9.23
2018-08-20T08:34:01.741Z,9.17
2018-08-20T08:36:29.928Z,8.83
2018-08-20T08:38:58.383Z,7.70
2018-08-20T08:41:26.449Z,7.03
2018-08-20T08:43:54.877Z,7.90
2018-08-20T08:46:23.364Z,7.83
2018-08-20T08:48:51.540Z,7.43
2018-08-20T08:51:20.175Z,8.17
2018-08-20T08:53:48.402Z,7.20
2018-08-20T08:56:16.519Z,7.60
2018-08-20T08:58:44.597Z,6.90
2018-08-20T09:01:13.020Z,7.30
2018-08-20T09:03:41.899Z,7.63
2018-08-20T09:06:09.982Z,7.90
2018-08-20T09:08:38.460Z,8.00
2018-08-20T09:11:07.210Z,7.93
2018-08-20T09:13:36.050Z,7.27
2018-08-20T09:16:04.750Z,8.20
2018-08-20T09:18:33.506Z,7.30
2018-08-20T09:21:03.628Z,7.60
2018-08-20T09:23:32.486Z,7.33
2018-08-20T09:26:00.979Z,7.00
2018-08-20T09:28:29.856Z,6.93
2018-08-20T09:30:58.028Z,6.80
2018-08-20T09:33:26.220Z,7.20
2018-08-20T09:35:54.614Z,7.73
2018-08-20T09:38:23.130Z,7.80
2018-08-20T09:40:51.679Z,6.57
2018-08-20T09:43:20.457Z,6.00
2018-08-20T09:45:48.521Z,5.60
2018-08-20T09:48:17.306Z,5.10
2018-08-20T09:50:45.805Z,5.83
2018-08-20T09:53:13.944Z,5.67
2018-08-20T09:55:42.204Z,5.30
2018-08-20T09:58:10.307Z,5.40
2018-08-20T10:00:40.068Z,4.90
2018-08-20T10:03:09.217Z,6.27
2018-08-20T10:05:37.684Z,5.07
2018-08-20T10:08:05.819Z,5.50
2018-08-20T10:10:34.242Z,5.20
2018-08-20T10:13:02.290Z,7.73
2018-08-20T10:15:30.873Z,5.70
2018-08-20T10:17:59.257Z,5.60
2018-08-20T10:20:27.734Z,5.90
2018-08-20T10:22:56.313Z,5.73
2018-08-20T10:25:24.728Z,5.67
2018-08-20T10:27:53.503Z,6.20
2018-08-20T10:30:21.902Z,5.67
2018-08-20T10:32:50.071Z,5.90
2018-08-20T10:35:18.482Z,5.80
2018-08-20T10:37:47.393Z,6.13
2018-08-20T10:40:16.034Z,5.80
2018-08-20T10:42:44.510Z,5.53
2018-08-20T10:45:16.193Z,7.47
2018-08-20T10:47:46.522Z,5.80
2018-08-20T10:50:15.901Z,6.40
2018-08-20T10:52:45.799Z,5.80
2018-08-20T10:55:13.963Z,6.33
2018-08-20T10:57:43.395Z,5.23
2018-08-20T11:00:12.074Z,5.10
2018-08-20T11:02:40.657Z,5.83
2018-08-20T11:05:11.655Z,5.50
2018-08-20T11:07:39.773Z,5.37
2018-08-20T11:10:07.911Z,5.67
2018-08-20T11:12:36.174Z,5.00
2018-08-20T11:15:05.770Z,5.27
2018-08-20T11:17:34.596Z,4.90
2018-08-20T11:20:02.974Z,4.40
2018-08-20T11:22:31.926Z,4.90
2018-08-20T11:25:00.349Z,4.80
2018-08-20T11:27:29.305Z,4.17
2018-08-20T11:29:58.239Z,4.43
2018-08-20T11:32:26.998Z,4.13
2018-08-20T11:34:55.740Z,4.80
2018-08-20T11:37:24.503Z,4.70
2018-08-20T11:39:53.253Z,3.47
2018-08-20T11:42:21.689Z,4.30
2018-08-20T11:44:50.459Z,3.60
2018-08-20T11:47:18.884Z,4.60
2018-08-20T11:49:47.387Z,4.03
2018-08-20T11:52:16.121Z,3.20
2018-08-20T11:54:44.922Z,3.70
2018-08-20T11:57:13.688Z,4.17
2018-08-20T11:59:42.443Z,3.20
2018-08-20T12:02:10.625Z,3.03
2018-08-20T12:04:39.393Z,4.53
2018-08-20T12:07:07.877Z,3.90
2018-08-20T12:09:36.534Z,4.30
2018-08-20T12:12:04.676Z,4.73
2018-08-20T12:14:33.113Z,3.70
2018-08-20T12:17:01.913Z,3.97
2018-08-20T12:19:30.718Z,3.67
2018-08-20T12:21:59.436Z,4.20
2018-08-20T12:24:27.954Z,4.40
2018-08-20T12:26:56.723Z,3.90
2018-08-20T12:29:25.228Z,3.90
2018-08-20T12:31:54.429Z,4.07
2018-08-20T12:34:22.881Z,3.03
2018-08-20T12:36:51.853Z,3.50
2018-08-20T12:39:20.435Z,3.43
2018-08-20T12:41:49.258Z,4.60
2018-08-20T12:44:18.042Z,4.50
2018-08-20T12:46:46.803Z,3.60
2018-08-20T12:49:15.509Z,3.57
2018-08-20T12:51:44.322Z,3.37
2018-08-20T12:54:12.717Z,3.80
2018-08-20T12:56:41.881Z,4.07
2018-08-20T12:59:10.433Z,4.50
2018-08-20T13:01:39.223Z,3.57
2018-08-20T13:04:07.673Z,3.10
2018-08-20T13:06:35.757Z,3.30
2018-08-20T13:09:05.550Z,3.57
2018-08-20T13:11:33.974Z,3.20
2018-08-20T13:14:02.399Z,3.90
2018-08-20T13:16:31.113Z,4.00
2018-08-20T13:18:59.231Z,4.60
2018-08-20T13:21:27.302Z,3.83
2018-08-20T13:23:56.138Z,4.30
2018-08-20T13:26:24.936Z,3.73
2018-08-20T13:28:53.645Z,3.07
2018-08-20T13:31:22.027Z,3.90
2018-08-20T13:33:50.750Z,3.90
2018-08-20T13:36:19.834Z,3.67
2018-08-20T13:38:48.248Z,3.80
2018-08-20T13:41:16.712Z,3.30
2018-08-20T13:43:45.083Z,4.03
2018-08-20T13:46:13.190Z,3.30
2018-08-20T13:48:41.682Z,3.80
2018-08-20T13:51:10.521Z,3.70
2018-08-20T13:53:39.468Z,3.20
2018-08-20T13:56:08.623Z,3.80
2018-08-20T13:58:36.995Z,3.30
2018-08-20T14:01:05.167Z,3.57
2018-08-20T14:03:33.800Z,3.57
2018-08-20T14:06:02.351Z,3.33
2018-08-20T14:08:30.772Z,3.10
2018-08-20T14:10:58.947Z,3.50
2018-08-20T14:13:27.474Z,3.37
2018-08-20T14:15:55.837Z,3.30
2018-08-20T14:18:24.256Z,3.20
2018-08-20T14:21:02.908Z,3.57
2018-08-20T14:23:31.699Z,3.60
2018-08-20T14:25:59.800Z,3.60
2018-08-20T14:28:28.436Z,2.70
2018-08-20T14:30:56.934Z,3.33
2018-08-20T14:33:25.332Z,3.20
2018-08-20T14:35:54.140Z,3.10
2018-08-20T14:38:22.282Z,3.30
2018-08-20T14:40:51.145Z,3.20
2018-08-20T14:43:19.309Z,3.33
2018-08-20T14:45:52.940Z,3.33
2018-08-20T14:48:21.062Z,3.80
2018-08-20T14:50:49.197Z,3.03
2018-08-20T14:53:17.708Z,3.80
2018-08-20T14:55:45.808Z,3.37
2018-08-20T14:58:14.854Z,4.33
2018-08-20T15:00:43.347Z,7.27
2018-08-20T15:03:12.229Z,4.37
2018-08-20T15:05:41.134Z,4.17
2018-08-20T15:08:09.570Z,4.20
2018-08-20T15:10:38.025Z,4.00
2018-08-20T15:13:06.254Z,3.90
2018-08-20T15:15:35.147Z,4.17
2018-08-20T15:18:03.425Z,4.70
2018-08-20T15:20:32.186Z,5.10
2018-08-20T15:23:00.930Z,4.43
2018-08-20T15:25:29.436Z,4.60
2018-08-20T15:27:57.734Z,3.47
2018-08-20T15:30:26.542Z,18.70
2018-08-20T15:32:55.047Z,4.30
2018-08-20T15:35:23.548Z,4.87
2018-08-20T15:37:52.349Z,4.40
2018-08-20T15:40:20.839Z,4.17
2018-08-20T15:42:49.246Z,4.40
2018-08-20T15:45:17.743Z,3.80
2018-08-20T15:47:46.195Z,3.80
2018-08-20T15:50:14.334Z,4.20
2018-08-20T15:52:42.813Z,3.73
2018-08-20T15:55:11.016Z,3.73
2018-08-20T15:57:39.549Z,4.00
2018-08-20T16:00:08.800Z,3.70
2018-08-20T16:02:38.200Z,3.70
2018-08-20T16:05:07.051Z,3.90
2018-08-20T16:07:35.901Z,4.03
2018-08-20T16:10:04.688Z,3.80
2018-08-20T16:12:33.107Z,4.20
2018-08-20T16:15:01.868Z,4.00
2018-08-20T16:17:30.298Z,4.00
2018-08-20T16:19:59.024Z,3.90
2018-08-20T16:22:27.475Z,4.40
2018-08-20T16:24:55.918Z,4.10
2018-08-20T16:27:24.041Z,4.10
2018-08-20T16:29:52.797Z,3.50
2018-08-20T16:32:21.420Z,4.03
2018-08-20T16:34:49.836Z,3.60
2018-08-20T16:37:17.981Z,4.27
2018-08-20T16:39:46.280Z,4.10
2018-08-20T16:42:14.806Z,4.57
2018-08-20T16:44:43.376Z,4.00
2018-08-20T16:47:11.850Z,4.00
2018-08-20T16:49:40.744Z,4.37
2018-08-20T16:52:08.889Z,3.57
2018-08-20T16:54:37.103Z,3.40
2018-08-20T16:57:05.988Z,4.30
2018-08-20T16:59:34.491Z,4.20
2018-08-20T17:02:03.292Z,4.00
2018-08-20T17:04:38.692Z,4.43
2018-08-20T17:07:06.825Z,3.60
2018-08-20T17:09:35.394Z,4.30
2018-08-20T17:12:03.479Z,3.80
2018-08-20T17:14:32.259Z,3.77
2018-08-20T17:17:00.498Z,3.80
2018-08-20T17:19:28.620Z,3.50
2018-08-20T17:21:56.716Z,3.50
2018-08-20T17:24:40.693Z,8.80
2018-08-20T17:27:09.524Z,3.83
2018-08-20T17:29:38.010Z,3.90
2018-08-20T17:32:07.336Z,3.30
2018-08-20T17:34:38.536Z,3.50
2018-08-20T17:37:06.654Z,3.90
2018-08-20T17:39:39.868Z,3.83
2018-08-20T17:42:08.253Z,3.70
2018-08-20T17:44:37.008Z,4.00
2018-08-20T17:47:08.144Z,4.47
2018-08-20T17:49:36.627Z,4.50
2018-08-20T17:52:05.082Z,4.30
2018-08-20T17:54:33.824Z,3.83
2018-08-20T17:57:02.258Z,4.00
2018-08-20T17:59:31.018Z,4.30
2018-08-20T18:01:59.132Z,4.50
2018-08-20T18:04:27.630Z,4.40
2018-08-20T18:06:56.367Z,5.27
2018-08-20T18:09:25.159Z,4.60
2018-08-20T18:11:54.934Z,6.33
2018-08-20T18:14:24.664Z,5.20
2018-08-20T18:16:53.090Z,4.17
2018-08-20T18:19:21.185Z,4.80
2018-08-20T18:21:49.372Z,4.20
2018-08-20T18:24:19.225Z,4.43
2018-08-20T18:26:52.014Z,4.73
2018-08-20T18:29:20.069Z,5.73
2018-08-20T18:31:56.512Z,4.40
2018-08-20T18:34:24.949Z,4.10
2018-08-20T18:36:53.543Z,5.50
2018-08-20T18:39:22.029Z,5.50
2018-08-20T18:41:54.424Z,5.20
2018-08-20T18:44:23.130Z,4.57
2018-08-20T18:46:51.998Z,4.20
2018-08-20T18:49:20.573Z,4.50
2018-08-20T18:52:00.376Z,4.40
2018-08-20T18:54:28.591Z,4.93
2018-08-20T18:57:02.026Z,4.50
2018-08-20T18:59:30.615Z,5.70
2018-08-20T19:01:58.710Z,5.07
2018-08-20T19:04:30.414Z,4.63
2018-08-20T19:07:03.389Z,4.40
2018-08-20T19:09:32.208Z,5.10
2018-08-20T19:12:00.648Z,5.13
2018-08-20T19:14:29.470Z,4.67
2018-08-20T19:16:57.895Z,4.70
2018-08-20T19:19:28.446Z,5.70
2018-08-20T19:21:56.962Z,4.80
2018-08-20T19:24:28.218Z,5.47
2018-08-20T19:26:59.680Z,5.57
2018-08-20T19:29:29.799Z,4.87
2018-08-20T19:31:57.970Z,5.67
2018-08-20T19:34:33.304Z,6.73
2018-08-20T19:37:01.705Z,5.27
2018-08-20T19:39:29.886Z,4.73
2018-08-20T19:41:57.945Z,4.43
2018-08-20T19:44:26.026Z,5.37
2018-08-20T19:46:55.161Z,4.90
2018-08-20T19:49:24.111Z,6.60
2018-08-20T19:51:52.302Z,5.30
2018-08-20T19:54:20.716Z,4.93
2018-08-20T19:56:48.823Z,5.60
2018-08-20T19:59:23.886Z,5.10
2018-08-20T20:01:52.964Z,7.80
2018-08-20T20:04:21.425Z,4.63
2018-08-20T20:06:49.632Z,5.67
2018-08-20T20:09:18.059Z,5.40
2018-08-20T20:11:48.618Z,6.53
2018-08-20T20:14:16.889Z,4.73
2018-08-20T20:16:52.548Z,5.00
2018-08-20T20:19:21.106Z,5.30
2018-08-20T20:21:49.582Z,4.90
2018-08-20T20:24:18.343Z,4.60
2018-08-20T20:26:47.158Z,5.80
2018-08-20T20:29:15.667Z,4.20
2018-08-20T20:31:43.893Z,5.40
2018-08-20T20:34:12.321Z,4.00
2018-08-20T20:36:41.044Z,4.50
2018-08-20T20:39:11.554Z,4.80
2018-08-20T20:41:40.067Z,5.43
2018-08-20T20:44:09.551Z,5.07
2018-08-20T20:46:37.650Z,4.47
2018-08-20T20:49:05.789Z,4.83
2018-08-20T20:51:33.877Z,4.03
2018-08-20T20:54:02.302Z,4.37
2018-08-20T20:56:31.131Z,5.73
2018-08-20T20:58:59.269Z,4.63
2018-08-20T21:01:28.020Z,4.63
2018-08-20T21:03:56.524Z,5.27
2018-08-20T21:06:24.659Z,3.90
2018-08-20T21:08:53.030Z,4.60
2018-08-20T21:11:22.855Z,4.30
2018-08-20T21:13:51.342Z,5.10
2018-08-20T21:16:22.467Z,5.57
2018-08-20T21:18:53.607Z,5.87
2018-08-20T21:21:22.108Z,4.07
2018-08-20T21:23:50.203Z,4.03
2018-08-20T21:26:18.255Z,4.30
2018-08-20T21:28:48.319Z,4.10
2018-08-20T21:31:17.522Z,3.40
2018-08-20T21:33:46.358Z,3.33
2018-08-20T21:36:14.883Z,3.53
2018-08-20T21:38:43.302Z,3.17
2018-08-20T21:41:11.417Z,3.90
2018-08-20T21:43:45.196Z,3.37
2018-08-20T21:46:13.860Z,3.63
2018-08-20T21:48:42.758Z,2.80
2018-08-20T21:51:13.407Z,2.90
2018-08-20T21:53:41.907Z,2.83
2018-08-20T21:56:11.325Z,3.00
2018-08-20T21:58:41.075Z,2.73
2018-08-20T22:01:10.724Z,3.07
2018-08-20T22:03:39.392Z,3.13
2018-08-20T22:06:07.821Z,4.03
2018-08-20T22:08:36.295Z,2.80
2018-08-20T22:11:04.438Z,2.90
2018-08-20T22:13:32.910Z,3.13
2018-08-20T22:16:24.094Z,2.77
2018-08-20T22:18:54.576Z,2.83
2018-08-20T22:21:22.815Z,3.03
2018-08-20T22:23:50.950Z,2.50
2018-08-20T22:26:20.812Z,2.30
2018-08-20T22:28:50.668Z,2.57
2018-08-20T22:31:19.557Z,2.37
2018-08-20T22:33:55.197Z,3.80
2018-08-20T22:36:23.832Z,4.00
2018-08-20T22:38:53.081Z,2.83
2018-08-20T22:41:22.193Z,3.30
2018-08-20T22:43:50.807Z,2.53
2018-08-20T22:46:19.866Z,2.50
2018-08-20T22:48:51.598Z,3.70
2018-08-20T22:51:20.641Z,3.47
2018-08-20T22:53:50.896Z,2.17
2018-08-20T22:56:20.248Z,2.00
2018-08-20T22:58:48.391Z,2.13
2018-08-20T23:01:16.514Z,2.87
2018-08-20T23:03:44.979Z,3.03
2018-08-20T23:06:13.477Z,2.00
2018-08-20T23:08:41.858Z,3.00
2018-08-20T23:11:09.970Z,2.20
2018-08-20T23:13:38.455Z,2.13
2018-08-20T23:16:06.827Z,2.60
2018-08-20T23:18:35.061Z,2.17
2018-08-20T23:21:03.571Z,2.80
2018-08-20T23:23:34.672Z,2.70
2018-08-20T23:26:06.592Z,2.37
2018-08-20T23:28:38.548Z,2.00
2018-08-20T23:31:07.018Z,1.90
2018-08-20T23:33:39.469Z,3.00
2018-08-20T23:36:08.222Z,2.10
2018-08-20T23:38:36.988Z,1.87
2018-08-20T23:41:05.118Z,1.93
2018-08-20T23:43:33.637Z,1.97
2018-08-20T23:46:02.087Z,2.10
2018-08-20T23:48:30.535Z,1.93
2018-08-20T23:51:03.237Z,1.70
2018-08-20T23:53:31.362Z,2.00
2018-08-20T23:55:59.932Z,1.40
2018-08-20T23:58:28.365Z,1.70
